Time;durP1;ratioP1;P1;durP2;ratioP2;P2;SDS_P1;SDS_P2;PMS_P1;PMS_P2;Temp;Humidity;BMP_temperature;BMP_pressure;BME280_temperature;BME280_humidity;BME280_pressure;Samples;Min_cycle;Max_cycle;Signal;HPM_P1;HPM_P2
2022/05/23 00:01:58;;;;;;;;;;;18.80;90.60;;;;;;4981408;28;19936;-76
2022/05/23 00:04:23;;;;;;;;;;;18.80;90.50;;;;;;4976943;28;20367;-75
2022/05/23 00:06:49;;;;;;;;;;;18.80;90.50;;;;;;4996716;28;19963;-76
2022/05/23 00:09:15;;;;;;;;;;;18.80;90.50;;;;;;5014338;28;19967;-75
2022/05/23 00:11:41;;;;;;;;;;;18.80;90.50;;;;;;4995443;28;19924;-76
2022/05/23 00:14:06;;;;;;;;;;;18.80;90.80;;;;;;5013709;28;20359;-76
2022/05/23 00:16:40;;;;;;;;;;;18.80;90.80;;;;;;5009240;28;19952;-75
2022/05/23 00:19:06;;;;;;;;;;;18.80;90.70;;;;;;4977236;28;19901;-76
2022/05/23 00:21:31;;;;;;;;;;;18.80;90.80;;;;;;4995715;28;20273;-75
2022/05/23 00:23:57;;;;;;;;;;;18.80;90.70;;;;;;4991120;28;20327;-76
2022/05/23 00:26:22;;;;;;;;;;;18.90;90.70;;;;;;4977153;28;19956;-77
2022/05/23 00:28:48;;;;;;;;;;;18.80;90.70;;;;;;4994303;28;19945;-73
2022/05/23 00:31:14;;;;;;;;;;;18.90;90.60;;;;;;4994125;28;19916;-76
2022/05/23 00:36:24;;;;;;;;;;;18.80;90.40;;;;;;5012368;28;19932;-76
2022/05/23 00:38:50;;;;;;;;;;;18.80;90.50;;;;;;4995802;28;20429;-76
2022/05/23 00:44:11;;;;;;;;;;;18.80;90.60;;;;;;5007087;28;20410;-76
2022/05/23 00:46:48;;;;;;;;;;;18.80;90.50;;;;;;4993684;28;19905;-76
2022/05/23 00:49:13;;;;;;;;;;;18.70;90.40;;;;;;5011223;28;19909;-76
2022/05/23 00:51:39;;;;;;;;;;;18.80;90.50;;;;;;4994813;28;19979;-76
2022/05/23 00:54:05;;;;;;;;;;;18.70;90.50;;;;;;5013246;28;19906;-76
2022/05/23 00:56:37;;;;;;;;;;;18.70;90.50;;;;;;4998024;28;19909;-76
2022/05/23 00:59:04;;;;;;;;;;;18.70;90.70;;;;;;4994847;28;19914;-76
2022/05/23 01:01:31;;;;;;;;;;;18.70;91.00;;;;;;4993866;28;19906;-76
2022/05/23 01:03:56;;;;;;;;;;;18.70;90.60;;;;;;4993976;28;19934;-76
2022/05/23 01:06:21;;;;;;;;;;;18.70;90.60;;;;;;5004700;28;19909;-76
2022/05/23 01:08:52;;;;;;;;;;;18.70;90.80;;;;;;4982852;28;19906;-77
2022/05/23 01:11:18;;;;;;;;;;;18.70;90.80;;;;;;4997106;28;19920;-76
2022/05/23 01:13:43;;;;;;;;;;;18.70;90.70;;;;;;4995180;28;19909;-76
2022/05/23 01:16:09;;;;;;;;;;;18.80;90.70;;;;;;4993690;28;19952;-77
2022/05/23 01:18:34;;;;;;;;;;;18.80;90.70;;;;;;4994091;28;20352;-77
2022/05/23 01:21:02;;;;;;;;;;;18.80;90.70;;;;;;4992539;28;19936;-75
2022/05/23 01:23:46;;;;;;;;;;;18.80;90.60;;;;;;4993755;28;19925;-77
2022/05/23 01:26:12;;;;;;;;;;;18.80;90.50;;;;;;4980223;28;19912;-76
2022/05/23 01:28:38;;;;;;;;;;;18.80;90.50;;;;;;5010587;28;19992;-77
2022/05/23 01:31:04;;;;;;;;;;;18.80;90.60;;;;;;4993955;28;19917;-77
2022/05/23 01:33:30;;;;;;;;;;;18.70;90.60;;;;;;4994376;28;19916;-76
2022/05/23 01:35:57;;;;;;;;;;;18.70;90.70;;;;;;4980897;28;19914;-76
2022/05/23 01:38:23;;;;;;;;;;;18.70;90.70;;;;;;4984246;28;19960;-76
2022/05/23 01:40:48;;;;;;;;;;;18.70;90.70;;;;;;5008713;28;19965;-75
2022/05/23 01:43:15;;;;;;;;;;;18.70;90.80;;;;;;4996669;28;20363;-76
2022/05/23 01:45:58;;;;;;;;;;;18.70;90.80;;;;;;5011938;28;19915;-75
2022/05/23 01:48:23;;;;;;;;;;;18.70;90.70;;;;;;4989742;28;20339;-75
2022/05/23 01:50:49;;;;;;;;;;;18.70;90.80;;;;;;5010464;28;19963;-76
2022/05/23 01:53:14;;;;;;;;;;;18.70;90.80;;;;;;4996631;28;19988;-76
2022/05/23 01:55:40;;;;;;;;;;;18.70;90.70;;;;;;4996645;28;20343;-76
2022/05/23 01:58:05;;;;;;;;;;;18.70;90.60;;;;;;4975496;28;19953;-76
2022/05/23 02:03:15;;;;;;;;;;;18.70;90.80;;;;;;5002061;28;20382;-76
2022/05/23 02:05:40;;;;;;;;;;;18.70;90.70;;;;;;4993811;28;19909;-76
2022/05/23 02:08:06;;;;;;;;;;;18.70;90.70;;;;;;5010995;28;19905;-76
2022/05/23 02:10:32;;;;;;;;;;;18.70;90.70;;;;;;5011208;28;19977;-76
2022/05/23 02:13:00;;;;;;;;;;;18.70;90.60;;;;;;4993681;28;19913;-76
2022/05/23 02:15:28;;;;;;;;;;;18.80;90.50;;;;;;4974650;28;19925;-76
2022/05/23 02:17:56;;;;;;;;;;;18.80;90.60;;;;;;4974862;28;19909;-73
2022/05/23 02:20:21;;;;;;;;;;;18.80;90.60;;;;;;4989068;28;19915;-75
2022/05/23 02:22:47;;;;;;;;;;;18.70;90.50;;;;;;4998627;28;19990;-74
2022/05/23 02:25:12;;;;;;;;;;;18.70;90.50;;;;;;5008412;28;19909;-76
2022/05/23 02:27:38;;;;;;;;;;;18.70;90.50;;;;;;4978013;28;19913;-76
2022/05/23 02:30:04;;;;;;;;;;;18.70;90.60;;;;;;4993049;28;19913;-75
2022/05/23 02:32:29;;;;;;;;;;;18.70;90.60;;;;;;4994010;28;19913;-76
2022/05/23 02:34:55;;;;;;;;;;;18.70;90.50;;;;;;4993859;28;19906;-75
2022/05/23 02:37:20;;;;;;;;;;;18.70;90.70;;;;;;4994581;28;19967;-76
2022/05/23 02:39:45;;;;;;;;;;;18.70;90.70;;;;;;4987434;28;19906;-75
2022/05/23 02:42:11;;;;;;;;;;;18.60;90.70;;;;;;4993907;28;19910;-76
2022/05/23 02:44:36;;;;;;;;;;;18.60;90.60;;;;;;4974556;28;20406;-76
2022/05/23 02:47:02;;;;;;;;;;;18.60;90.70;;;;;;4974867;28;19912;-77
2022/05/23 02:49:28;;;;;;;;;;;18.60;90.70;;;;;;5004140;28;19905;-76
2022/05/23 02:51:53;;;;;;;;;;;18.60;90.80;;;;;;4997130;28;19909;-77
2022/05/23 02:54:19;;;;;;;;;;;18.60;90.70;;;;;;4998552;28;19925;-77
2022/05/23 02:56:45;;;;;;;;;;;18.60;90.60;;;;;;5012735;28;20359;-76
2022/05/23 02:59:10;;;;;;;;;;;18.60;90.80;;;;;;4997156;28;20359;-76
2022/05/23 03:03:01;;;;;;;;;;;18.60;90.70;;;;;;5010496;28;20387;-76
2022/05/23 03:04:24;;;;;;;;;;;18.60;90.60;;;;;;5005005;28;19910;-76
2022/05/23 03:06:50;;;;;;;;;;;18.70;90.60;;;;;;4990124;28;19920;-77
2022/05/23 03:09:15;;;;;;;;;;;18.70;90.50;;;;;;5013364;28;20355;-76
2022/05/23 03:11:41;;;;;;;;;;;18.70;90.50;;;;;;4993243;28;19975;-76
2022/05/23 03:14:06;;;;;;;;;;;18.70;90.50;;;;;;5006963;28;19914;-76
2022/05/23 03:16:32;;;;;;;;;;;18.70;90.50;;;;;;4977838;28;19913;-76
2022/05/23 03:18:57;;;;;;;;;;;18.70;90.50;;;;;;4982437;28;20275;-76
2022/05/23 03:27:00;;;;;;;;;;;18.70;90.50;;;;;;5011095;28;20554;-75
2022/05/23 03:29:29;;;;;;;;;;;18.60;90.60;;;;;;4996975;28;19913;-76
2022/05/23 03:31:55;;;;;;;;;;;18.60;90.60;;;;;;4997194;28;20286;-76
2022/05/23 03:34:21;;;;;;;;;;;18.60;90.60;;;;;;4996659;28;19905;-76
2022/05/23 03:36:46;;;;;;;;;;;18.60;90.60;;;;;;4984950;28;19933;-76
2022/05/23 03:39:12;;;;;;;;;;;18.60;90.70;;;;;;4984461;28;20430;-76
2022/05/23 03:41:38;;;;;;;;;;;18.60;90.70;;;;;;4979289;28;19910;-76
2022/05/23 03:44:05;;;;;;;;;;;18.60;90.60;;;;;;4977205;28;19906;-75
2022/05/23 03:46:30;;;;;;;;;;;18.60;90.60;;;;;;4981053;28;19909;-76
2022/05/23 03:48:56;;;;;;;;;;;18.60;90.70;;;;;;4999464;28;19952;-76
2022/05/23 03:51:21;;;;;;;;;;;18.50;90.60;;;;;;4990302;28;19917;-76
2022/05/23 03:53:47;;;;;;;;;;;18.60;90.70;;;;;;4996710;28;19999;-76
2022/05/23 03:56:12;;;;;;;;;;;18.60;90.60;;;;;;5014221;28;20370;-76
2022/05/23 03:58:38;;;;;;;;;;;18.60;90.60;;;;;;4996489;28;19905;-77
2022/05/23 04:01:05;;;;;;;;;;;18.60;90.50;;;;;;5013947;28;19910;-76
2022/05/23 04:03:30;;;;;;;;;;;18.70;90.50;;;;;;4995231;28;20003;-76
2022/05/23 04:05:57;;;;;;;;;;;18.70;90.50;;;;;;4996446;28;19999;-76
2022/05/23 04:08:23;;;;;;;;;;;18.70;90.40;;;;;;5014063;28;19905;-76
2022/05/23 04:10:48;;;;;;;;;;;18.70;90.40;;;;;;5013569;28;19923;-76
2022/05/23 04:13:14;;;;;;;;;;;18.70;90.40;;;;;;4983123;28;20019;-76
2022/05/23 04:15:41;;;;;;;;;;;18.60;90.40;;;;;;4976652;28;19948;-76
2022/05/23 04:18:06;;;;;;;;;;;18.60;90.40;;;;;;5013267;28;19960;-76
2022/05/23 04:20:32;;;;;;;;;;;18.60;90.40;;;;;;5002009;28;19914;-76
2022/05/23 04:22:57;;;;;;;;;;;18.60;90.50;;;;;;4991698;28;20287;-76
2022/05/23 04:25:23;;;;;;;;;;;18.60;90.50;;;;;;4992785;28;19909;-75
2022/05/23 04:27:48;;;;;;;;;;;18.60;90.70;;;;;;5011898;28;19913;-76
2022/05/23 04:30:14;;;;;;;;;;;18.60;90.50;;;;;;5000512;28;20295;-73
2022/05/23 04:35:23;;;;;;;;;;;19.60;90.80;;;;;;4993717;28;19972;-76
2022/05/23 04:37:50;;;;;;;;;;;18.60;90.60;;;;;;5007373;28;20386;-76
2022/05/23 04:40:20;;;;;;;;;;;18.60;90.60;;;;;;4989875;28;19951;-77
2022/05/23 04:42:46;;;;;;;;;;;18.60;90.60;;;;;;5000120;28;19944;-76
2022/05/23 04:45:12;;;;;;;;;;;18.60;90.60;;;;;;4988545;28;19914;-76
2022/05/23 04:50:27;;;;;;;;;;;18.50;90.60;;;;;;4954697;28;19943;-76
2022/05/23 04:52:53;;;;;;;;;;;18.60;90.50;;;;;;4987625;28;19917;-76
2022/05/23 04:55:18;;;;;;;;;;;18.60;90.50;;;;;;5001874;28;20413;-76
2022/05/23 04:57:44;;;;;;;;;;;18.60;90.40;;;;;;4989417;28;20394;-76
2022/05/23 05:00:11;;;;;;;;;;;18.60;90.40;;;;;;5006229;28;19914;-76
2022/05/23 05:02:37;;;;;;;;;;;18.60;90.30;;;;;;4997235;28;19913;-78
2022/05/23 05:05:03;;;;;;;;;;;18.60;90.30;;;;;;4978955;28;19920;-75
2022/05/23 05:07:28;;;;;;;;;;;18.60;90.20;;;;;;4985838;28;19913;-79
2022/05/23 05:09:53;;;;;;;;;;;18.60;90.20;;;;;;4982821;28;19924;-76
2022/05/23 05:12:19;;;;;;;;;;;18.60;90.30;;;;;;4994728;28;20007;-77
2022/05/23 05:14:44;;;;;;;;;;;18.60;90.30;;;;;;4983540;28;20000;-76
2022/05/23 05:17:10;;;;;;;;;;;18.60;90.30;;;;;;4995315;28;19914;-76
2022/05/23 05:19:35;;;;;;;;;;;18.60;90.40;;;;;;4972390;28;19910;-76
2022/05/23 05:22:03;;;;;;;;;;;18.60;90.40;;;;;;4976072;28;19930;-75
2022/05/23 05:24:29;;;;;;;;;;;18.50;90.40;;;;;;4988193;28;19921;-76
2022/05/23 05:26:55;;;;;;;;;;;18.50;90.30;;;;;;4997021;28;20334;-77
2022/05/23 05:29:20;;;;;;;;;;;18.50;90.50;;;;;;5000091;28;19921;-75
2022/05/23 05:32:09;;;;;;;;;;;18.50;90.50;;;;;;4995096;28;19917;-75
2022/05/23 05:34:56;;;;;;;;;;;18.50;90.50;;;;;;4993376;28;19996;-76
2022/05/23 05:37:24;;;;;;;;;;;18.50;90.60;;;;;;4993093;28;19913;-75
2022/05/23 05:39:51;;;;;;;;;;;18.50;90.50;;;;;;4969737;28;19913;-75
2022/05/23 05:42:21;;;;;;;;;;;18.50;90.50;;;;;;5002454;28;20298;-76
2022/05/23 05:44:52;;;;;;;;;;;18.50;90.50;;;;;;4999867;28;19949;-76
2022/05/23 05:47:19;;;;;;;;;;;18.50;90.50;;;;;;4968451;28;20304;-76
2022/05/23 05:49:46;;;;;;;;;;;18.50;90.40;;;;;;4975118;28;19910;-76
2022/05/23 05:52:13;;;;;;;;;;;18.60;90.40;;;;;;5001660;28;19920;-78
2022/05/23 05:54:40;;;;;;;;;;;18.60;90.40;;;;;;4978028;28;19917;-77
2022/05/23 05:57:06;;;;;;;;;;;18.60;90.30;;;;;;4999807;28;19909;-77
2022/05/23 05:59:31;;;;;;;;;;;18.60;90.30;;;;;;5000753;28;19916;-77
2022/05/23 06:01:57;;;;;;;;;;;18.60;90.20;;;;;;4989514;28;20306;-77
2022/05/23 06:04:22;;;;;;;;;;;18.60;90.20;;;;;;5007331;28;20011;-78
2022/05/23 06:12:16;;;;;;;;;;;18.50;90.30;;;;;;4988693;28;20322;-77
2022/05/23 06:14:41;;;;;;;;;;;18.50;90.30;;;;;;4984243;28;19949;-77
2022/05/23 06:17:07;;;;;;;;;;;18.50;90.30;;;;;;5008141;28;19916;-78
2022/05/23 06:19:37;;;;;;;;;;;18.50;90.30;;;;;;4987317;28;19914;-78
2022/05/23 06:22:03;;;;;;;;;;;18.50;90.30;;;;;;4989495;28;19920;-77
2022/05/23 06:24:29;;;;;;;;;;;18.50;90.30;;;;;;5007515;28;19921;-78
2022/05/23 06:26:54;;;;;;;;;;;18.50;90.30;;;;;;4990270;28;19943;-78
2022/05/23 06:29:20;;;;;;;;;;;18.50;90.30;;;;;;5004237;28;20686;-78
2022/05/23 06:31:46;;;;;;;;;;;18.50;90.30;;;;;;4975746;28;19918;-78
2022/05/23 06:34:11;;;;;;;;;;;18.50;90.30;;;;;;4975388;28;19905;-78
2022/05/23 06:36:37;;;;;;;;;;;18.50;90.30;;;;;;4975739;28;20374;-78
2022/05/23 06:39:02;;;;;;;;;;;18.50;90.30;;;;;;4975414;28;19909;-78
2022/05/23 06:41:28;;;;;;;;;;;18.50;90.30;;;;;;4975754;28;19905;-77
2022/05/23 06:43:53;;;;;;;;;;;18.50;90.20;;;;;;4994344;28;19921;-78
2022/05/23 06:46:18;;;;;;;;;;;18.50;90.20;;;;;;4976806;28;19916;-78
2022/05/23 06:48:44;;;;;;;;;;;18.50;90.10;;;;;;4992959;28;20367;-80
2022/05/23 06:51:10;;;;;;;;;;;18.60;90.10;;;;;;5011981;28;19917;-78
2022/05/23 06:53:35;;;;;;;;;;;18.60;90.00;;;;;;5013464;28;19917;-79
2022/05/23 06:56:01;;;;;;;;;;;18.60;89.90;;;;;;5013518;28;19917;-78
2022/05/23 06:58:27;;;;;;;;;;;18.60;89.80;;;;;;4996981;28;19913;-80
2022/05/23 07:00:53;;;;;;;;;;;18.60;89.80;;;;;;5014508;28;19973;-78
2022/05/23 07:03:19;;;;;;;;;;;18.60;89.90;;;;;;4996860;28;19920;-79
2022/05/23 07:14:00;;;;;;;;;;;18.50;90.00;;;;;;5013457;28;19913;-78
2022/05/23 07:16:25;;;;;;;;;;;18.60;90.00;;;;;;4994320;28;19935;-78
2022/05/23 07:18:51;;;;;;;;;;;18.50;89.90;;;;;;4995178;28;19910;-78
2022/05/23 07:21:17;;;;;;;;;;;18.50;90.00;;;;;;4994936;28;19910;-78
2022/05/23 07:23:42;;;;;;;;;;;18.50;89.90;;;;;;4994784;28;19913;-78
2022/05/23 07:26:09;;;;;;;;;;;18.50;90.00;;;;;;5012689;28;20367;-79
2022/05/23 07:28:35;;;;;;;;;;;18.60;90.00;;;;;;4996239;28;19905;-79
2022/05/23 07:31:01;;;;;;;;;;;18.50;89.80;;;;;;5000502;28;20290;-79
2022/05/23 07:33:27;;;;;;;;;;;18.50;89.80;;;;;;4986835;23;19965;-78
2022/05/23 07:35:57;;;;;;;;;;;18.50;89.50;;;;;;4993885;28;19957;-78
2022/05/23 07:38:22;;;;;;;;;;;18.50;89.60;;;;;;4991535;28;19909;-77
2022/05/23 07:40:48;;;;;;;;;;;18.50;89.70;;;;;;4973703;28;19929;-76
2022/05/23 07:43:16;;;;;;;;;;;18.60;89.70;;;;;;4959548;28;19930;-76
2022/05/23 07:45:41;;;;;;;;;;;18.60;89.70;;;;;;4954838;28;19906;-77
2022/05/23 07:48:07;;;;;;;;;;;18.60;89.40;;;;;;4955000;28;19910;-77
2022/05/23 07:50:32;;;;;;;;;;;18.60;89.20;;;;;;4955110;28;19914;-76
2022/05/23 08:01:10;;;;;;;;;;;18.70;88.80;;;;;;4972429;28;19964;-77
2022/05/23 08:03:36;;;;;;;;;;;18.70;88.70;;;;;;4954317;28;19910;-77
2022/05/23 08:06:01;;;;;;;;;;;18.70;88.70;;;;;;4954640;28;19910;-77
2022/05/23 08:08:27;;;;;;;;;;;18.70;88.60;;;;;;4954757;28;19913;-78
2022/05/23 08:10:52;;;;;;;;;;;18.70;88.50;;;;;;4971800;28;19937;-77
2022/05/23 08:13:18;;;;;;;;;;;18.70;88.80;;;;;;4954658;28;19917;-76
2022/05/23 08:15:43;;;;;;;;;;;18.70;88.60;;;;;;4954201;28;20005;-77
2022/05/23 08:18:09;;;;;;;;;;;18.70;88.60;;;;;;4972030;28;20403;-77
2022/05/23 08:20:36;;;;;;;;;;;18.80;88.60;;;;;;4954576;28;20714;-78
2022/05/23 08:23:01;;;;;;;;;;;18.70;88.10;;;;;;4971193;28;19910;-77
2022/05/23 08:25:27;;;;;;;;;;;18.80;88.10;;;;;;4953524;28;20268;-77
2022/05/23 08:27:55;;;;;;;;;;;18.80;88.10;;;;;;4954166;28;20376;-77
2022/05/23 08:30:21;;;;;;;;;;;18.80;88.10;;;;;;4953805;28;19921;-77
2022/05/23 08:32:47;;;;;;;;;;;18.80;88.10;;;;;;4971000;28;19918;-77
2022/05/23 08:35:13;;;;;;;;;;;18.80;88.10;;;;;;4971163;28;20078;-77
2022/05/23 08:37:39;;;;;;;;;;;18.90;88.00;;;;;;4971449;28;19906;-77
2022/05/23 08:40:06;;;;;;;;;;;19.00;87.90;;;;;;4954012;28;20079;-77
2022/05/23 08:42:49;;;;;;;;;;;19.00;87.70;;;;;;4953797;28;19910;-79
2022/05/23 08:45:15;;;;;;;;;;;19.00;87.50;;;;;;4953632;28;20383;-77
2022/05/23 08:47:49;;;;;;;;;;;19.00;87.30;;;;;;4953886;28;19910;-77
2022/05/23 08:50:15;;;;;;;;;;;19.10;87.20;;;;;;4953685;28;19997;-76
2022/05/23 08:52:53;;;;;;;;;;;19.10;87.00;;;;;;4970799;28;19942;-77
2022/05/23 08:55:31;;;;;;;;;;;19.00;87.00;;;;;;4953720;28;19920;-79
2022/05/23 08:58:03;;;;;;;;;;;19.10;87.10;;;;;;4953836;28;19905;-77
2022/05/23 09:00:30;;;;;;;;;;;19.00;86.70;;;;;;4953624;28;19917;-79
2022/05/23 09:03:00;;;;;;;;;;;19.00;87.30;;;;;;4953602;28;19910;-77
2022/05/23 09:05:32;;;;;;;;;;;19.00;86.70;;;;;;4970637;28;19941;-77
2022/05/23 09:07:59;;;;;;;;;;;19.00;86.70;;;;;;4953598;28;19906;-76
2022/05/23 09:10:29;;;;;;;;;;;19.00;86.80;;;;;;4953375;28;20108;-76
2022/05/23 09:12:54;;;;;;;;;;;19.00;87.00;;;;;;4953408;28;19913;-77
2022/05/23 09:15:21;;;;;;;;;;;19.00;87.00;;;;;;4953127;28;19906;-76
2022/05/23 09:17:51;;;;;;;;;;;19.00;87.30;;;;;;4970375;28;19910;-77
2022/05/23 09:20:20;;;;;;;;;;;19.00;87.30;;;;;;4970929;28;19941;-77
2022/05/23 09:22:48;;;;;;;;;;;19.00;87.50;;;;;;4953076;28;20386;-77
2022/05/23 09:25:19;;;;;;;;;;;18.90;87.50;;;;;;4953119;28;20067;-75
2022/05/23 09:28:07;;;;;;;;;;;19.00;87.60;;;;;;4970340;28;19913;-76
2022/05/23 09:30:34;;;;;;;;;;;19.00;87.60;;;;;;4926236;28;19909;-76
2022/05/23 09:32:59;;;;;;;;;;;19.00;87.80;;;;;;4952823;28;19918;-77
2022/05/23 09:35:26;;;;;;;;;;;19.00;87.70;;;;;;4952810;28;19914;-77
2022/05/23 09:38:12;;;;;;;;;;;19.00;87.60;;;;;;4953228;28;20737;-76
2022/05/23 09:40:38;;;;;;;;;;;19.00;87.50;;;;;;4953026;28;19949;-77
2022/05/23 09:49:21;;;;;;;;;;;19.00;87.20;;;;;;4967306;28;19965;-76
2022/05/23 09:51:54;;;;;;;;;;;19.00;87.20;;;;;;4938159;28;20889;-76
2022/05/23 09:54:30;;;;;;;;;;;19.00;87.10;;;;;;4952022;28;19957;-77
2022/05/23 09:56:59;;;;;;;;;;;19.00;87.10;;;;;;4969830;28;19910;-76
2022/05/23 09:59:32;;;;;;;;;;;19.00;87.10;;;;;;4952341;28;19906;-75
2022/05/23 10:02:01;;;;;;;;;;;19.00;87.30;;;;;;4969672;28;19918;-76
2022/05/23 10:04:29;;;;;;;;;;;19.00;87.30;;;;;;4955937;28;19910;-76
2022/05/23 10:06:55;;;;;;;;;;;19.00;87.40;;;;;;4956339;28;19910;-76
2022/05/23 10:09:29;;;;;;;;;;;19.00;87.40;;;;;;4956303;28;19957;-76
2022/05/23 10:11:56;;;;;;;;;;;19.00;87.60;;;;;;4955965;28;19910;-77
2022/05/23 10:14:23;;;;;;;;;;;19.00;87.60;;;;;;4955901;28;19956;-76
2022/05/23 10:16:56;;;;;;;;;;;19.00;87.70;;;;;;4956013;28;19906;-77
2022/05/23 10:19:27;;;;;;;;;;;19.00;87.70;;;;;;4973711;28;19906;-77
2022/05/23 10:22:13;;;;;;;;;;;19.00;87.80;;;;;;4955056;28;20382;-76
2022/05/23 10:24:43;;;;;;;;;;;19.00;88.30;;;;;;4953785;29;19980;-76
2022/05/23 10:27:11;;;;;;;;;;;19.00;87.90;;;;;;4936853;29;19914;-76
2022/05/23 10:29:57;;;;;;;;;;;19.00;87.90;;;;;;4954906;28;19960;-75
2022/05/23 10:32:22;;;;;;;;;;;19.00;87.80;;;;;;4972282;28;19918;-77
2022/05/23 10:34:50;;;;;;;;;;;19.00;87.60;;;;;;4972688;28;19906;-76
2022/05/23 10:37:18;;;;;;;;;;;19.00;87.50;;;;;;4972928;28;19910;-77
2022/05/23 10:42:47;;;;;;;;;;;19.10;87.40;;;;;;4973175;28;20291;-76
2022/05/23 10:45:25;;;;;;;;;;;19.10;87.30;;;;;;4972452;28;19917;-76
2022/05/23 10:47:58;;;;;;;;;;;19.00;87.30;;;;;;4972734;28;19913;-76
2022/05/23 10:50:42;;;;;;;;;;;19.00;87.30;;;;;;4972589;28;19964;-78
2022/05/23 10:53:13;;;;;;;;;;;19.00;87.20;;;;;;4972471;28;19910;-77
2022/05/23 10:55:44;;;;;;;;;;;19.00;87.40;;;;;;4954965;28;19965;-76
2022/05/23 10:58:16;;;;;;;;;;;19.00;87.50;;;;;;4954989;28;19957;-76
2022/05/23 11:00:54;;;;;;;;;;;19.00;87.60;;;;;;4955215;28;20013;-77
2022/05/23 11:03:36;;;;;;;;;;;19.00;87.60;;;;;;4954877;28;20004;-76
2022/05/23 11:06:12;;;;;;;;;;;19.00;87.80;;;;;;4954934;28;19917;-77
2022/05/23 11:08:47;;;;;;;;;;;19.00;87.80;;;;;;4954647;28;19910;-76
2022/05/23 11:11:51;;;;;;;;;;;19.00;87.90;;;;;;4954939;28;20436;-76
2022/05/23 11:14:19;;;;;;;;;;;19.00;87.90;;;;;;4930782;29;19911;-77
2022/05/23 11:17:17;;;;;;;;;;;18.90;87.90;;;;;;4915485;29;19907;-75
2022/05/23 11:19:56;;;;;;;;;;;18.90;87.80;;;;;;4931549;28;19906;-76
2022/05/23 11:22:27;;;;;;;;;;;18.90;87.90;;;;;;4976526;28;19906;-76
2022/05/23 11:24:56;;;;;;;;;;;19.00;88.00;;;;;;4975838;28;19906;-77
2022/05/23 11:35:48;;;;;;;;;;;19.10;87.30;;;;;;4976537;28;19913;-76
2022/05/23 11:38:17;;;;;;;;;;;19.10;87.20;;;;;;4958905;28;19906;-76
2022/05/23 11:40:50;;;;;;;;;;;19.10;87.10;;;;;;4976114;28;19906;-76
2022/05/23 11:43:17;;;;;;;;;;;19.10;87.00;;;;;;4976179;28;19960;-76
2022/05/23 11:48:34;;;;;;;;;;;19.00;87.00;;;;;;4976598;28;20382;-77
2022/05/23 11:51:16;;;;;;;;;;;19.00;87.10;;;;;;4958751;28;19921;-76
2022/05/23 11:54:14;;;;;;;;;;;19.00;87.20;;;;;;4958129;28;19910;-76
2022/05/23 11:56:39;;;;;;;;;;;19.00;87.50;;;;;;4975515;28;20001;-78
2022/05/23 11:59:06;;;;;;;;;;;19.00;87.50;;;;;;4958231;28;19953;-77
2022/05/23 12:01:32;;;;;;;;;;;19.00;87.60;;;;;;4958400;28;20369;-77
2022/05/23 12:04:00;;;;;;;;;;;19.00;87.60;;;;;;4975538;28;19964;-78
2022/05/23 12:06:28;;;;;;;;;;;19.00;87.60;;;;;;4975750;28;19917;-77
2022/05/23 12:09:01;;;;;;;;;;;19.00;87.70;;;;;;4975536;28;19911;-78
2022/05/23 12:11:31;;;;;;;;;;;19.00;87.80;;;;;;4975533;28;19917;-74
2022/05/23 12:14:11;;;;;;;;;;;19.00;88.00;;;;;;4975498;28;20311;-77
2022/05/23 12:16:39;;;;;;;;;;;19.00;87.80;;;;;;4958328;28;19906;-77
2022/05/23 12:19:19;;;;;;;;;;;19.00;87.90;;;;;;4975583;28;20383;-76
2022/05/23 12:21:45;;;;;;;;;;;19.00;87.90;;;;;;4975534;28;20000;-76
2022/05/23 12:24:13;;;;;;;;;;;19.00;87.80;;;;;;4975205;28;19913;-77
2022/05/23 12:26:39;;;;;;;;;;;19.10;87.70;;;;;;4957560;28;19997;-76
2022/05/23 12:29:24;;;;;;;;;;;19.10;87.40;;;;;;4958097;28;19919;-76
2022/05/23 12:32:09;;;;;;;;;;;19.20;87.40;;;;;;4957793;28;19910;-76
2022/05/23 12:34:40;;;;;;;;;;;19.20;87.20;;;;;;4957883;28;19929;-77
2022/05/23 12:37:05;;;;;;;;;;;19.20;87.10;;;;;;4957992;28;19929;-76
2022/05/23 12:39:39;;;;;;;;;;;19.20;87.00;;;;;;4957933;28;19906;-77
2022/05/23 12:42:04;;;;;;;;;;;19.10;87.00;;;;;;4957905;28;19992;-77
2022/05/23 12:44:39;;;;;;;;;;;19.10;87.10;;;;;;4974966;28;19941;-76
2022/05/23 12:47:17;;;;;;;;;;;19.10;87.10;;;;;;4972882;28;19917;-77
2022/05/23 12:49:55;;;;;;;;;;;19.10;87.30;;;;;;4974844;28;19933;-76
2022/05/23 12:52:41;;;;;;;;;;;19.00;87.30;;;;;;4975023;28;19906;-77
2022/05/23 12:55:25;;;;;;;;;;;19.10;87.40;;;;;;4957021;28;19906;-75
2022/05/23 12:57:59;;;;;;;;;;;19.00;87.50;;;;;;4974895;28;19910;-76
2022/05/23 13:00:30;;;;;;;;;;;19.00;87.50;;;;;;4974396;28;19910;-78
2022/05/23 13:03:01;;;;;;;;;;;19.00;87.60;;;;;;4974391;28;19906;-76
2022/05/23 13:05:30;;;;;;;;;;;19.00;87.60;;;;;;4957258;28;19906;-77
2022/05/23 13:07:58;;;;;;;;;;;19.00;87.60;;;;;;4957134;28;19993;-76
2022/05/23 13:10:28;;;;;;;;;;;19.00;87.70;;;;;;4974916;28;20005;-76
2022/05/23 13:13:12;;;;;;;;;;;19.00;87.80;;;;;;4974465;28;20000;-76
2022/05/23 13:15:38;;;;;;;;;;;19.00;87.90;;;;;;4957176;28;19906;-76
2022/05/23 13:23:36;;;;;;;;;;;19.00;87.70;;;;;;4974273;28;19929;-77
2022/05/23 13:26:06;;;;;;;;;;;19.10;87.60;;;;;;4957150;28;19906;-77
2022/05/23 13:28:31;;;;;;;;;;;19.10;87.50;;;;;;4957000;28;19910;-77
2022/05/23 13:30:57;;;;;;;;;;;19.10;87.30;;;;;;4974373;28;19964;-77
2022/05/23 13:33:26;;;;;;;;;;;19.10;87.20;;;;;;4974006;28;20302;-77
2022/05/23 13:35:56;;;;;;;;;;;19.10;87.20;;;;;;4957018;28;19958;-77
2022/05/23 13:38:24;;;;;;;;;;;19.10;87.30;;;;;;4956165;28;19913;-78
2022/05/23 13:40:51;;;;;;;;;;;19.10;87.30;;;;;;4956983;28;19917;-77
2022/05/23 13:43:20;;;;;;;;;;;19.00;87.40;;;;;;4956946;28;20360;-77
2022/05/23 13:45:48;;;;;;;;;;;19.00;87.50;;;;;;4974043;28;20307;-76
2022/05/23 13:48:18;;;;;;;;;;;19.00;87.60;;;;;;4956684;28;19910;-76
2022/05/23 13:50:47;;;;;;;;;;;19.00;87.60;;;;;;4956829;28;19910;-76
2022/05/23 13:53:15;;;;;;;;;;;19.00;87.80;;;;;;4973850;28;20264;-76
2022/05/23 13:55:43;;;;;;;;;;;19.00;87.80;;;;;;4956614;28;19913;-77
2022/05/23 13:58:11;;;;;;;;;;;19.00;87.90;;;;;;4956749;28;19906;-78
2022/05/23 14:00:39;;;;;;;;;;;19.00;87.90;;;;;;4956704;28;20419;-77
2022/05/23 14:03:08;;;;;;;;;;;18.90;88.00;;;;;;4956492;28;19961;-77
2022/05/23 14:05:36;;;;;;;;;;;19.00;88.10;;;;;;4956726;28;20310;-76
2022/05/23 14:08:02;;;;;;;;;;;19.00;88.10;;;;;;4956751;28;19906;-77
2022/05/23 14:10:28;;;;;;;;;;;18.90;88.10;;;;;;4973725;28;19910;-77
2022/05/23 14:12:54;;;;;;;;;;;18.90;88.00;;;;;;4956556;28;20292;-77
2022/05/23 14:15:22;;;;;;;;;;;19.00;88.10;;;;;;4973619;28;19917;-77
2022/05/23 14:17:48;;;;;;;;;;;19.00;88.00;;;;;;4956871;28;19914;-77
2022/05/23 14:20:25;;;;;;;;;;;19.00;87.90;;;;;;4956558;28;19910;-76
2022/05/23 14:23:10;;;;;;;;;;;19.00;87.80;;;;;;4956470;28;20351;-77
2022/05/23 14:25:43;;;;;;;;;;;19.10;87.70;;;;;;4973587;28;19941;-77
2022/05/23 14:28:14;;;;;;;;;;;19.10;87.50;;;;;;4973845;28;19913;-76
2022/05/23 14:30:40;;;;;;;;;;;19.00;87.40;;;;;;4973838;28;20435;-77
2022/05/23 14:33:07;;;;;;;;;;;19.00;87.50;;;;;;4973527;28;19914;-77
2022/05/23 14:35:49;;;;;;;;;;;19.00;87.60;;;;;;4956286;28;19910;-77
2022/05/23 14:38:21;;;;;;;;;;;19.00;87.70;;;;;;4956449;28;19973;-77
2022/05/23 14:40:47;;;;;;;;;;;19.00;87.80;;;;;;4956113;28;19906;-77
2022/05/23 14:43:13;;;;;;;;;;;19.00;87.90;;;;;;4973585;28;20332;-77
2022/05/23 14:45:52;;;;;;;;;;;19.00;87.90;;;;;;4956134;28;20279;-77
2022/05/23 14:48:22;;;;;;;;;;;18.90;87.90;;;;;;4973846;28;19906;-77
2022/05/23 14:50:53;;;;;;;;;;;19.00;88.10;;;;;;4977034;28;19910;-76
2022/05/23 14:56:18;;;;;;;;;;;18.90;88.20;;;;;;4977438;28;19913;-76
2022/05/23 15:01:29;;;;;;;;;;;18.90;88.30;;;;;;4977136;28;20005;-74
2022/05/23 15:03:55;;;;;;;;;;;18.90;88.30;;;;;;4976652;28;19913;-76
2022/05/23 15:06:21;;;;;;;;;;;18.90;88.30;;;;;;4959478;28;19912;-76
2022/05/23 15:08:46;;;;;;;;;;;18.90;88.30;;;;;;4959432;28;20016;-76
2022/05/23 15:11:15;;;;;;;;;;;18.90;88.20;;;;;;4959554;28;19917;-77
2022/05/23 15:13:40;;;;;;;;;;;18.90;88.20;;;;;;4959202;28;19992;-77
2022/05/23 15:16:12;;;;;;;;;;;19.00;88.20;;;;;;4976778;28;20049;-76
2022/05/23 15:18:37;;;;;;;;;;;19.00;88.00;;;;;;4959165;28;19906;-78
2022/05/23 15:21:05;;;;;;;;;;;19.00;87.90;;;;;;4976497;28;20094;-78
2022/05/23 15:23:30;;;;;;;;;;;19.00;87.80;;;;;;4977023;28;19906;-78
2022/05/23 15:25:58;;;;;;;;;;;19.00;87.90;;;;;;4959465;28;19902;-78
2022/05/23 15:28:23;;;;;;;;;;;19.00;87.90;;;;;;4960692;28;20352;-77
2022/05/23 15:30:50;;;;;;;;;;;19.00;88.00;;;;;;4976322;28;19933;-77
2022/05/23 15:33:15;;;;;;;;;;;19.00;88.10;;;;;;4959021;28;19914;-77
2022/05/23 15:35:41;;;;;;;;;;;18.90;88.20;;;;;;4957990;28;19954;-78
2022/05/23 15:38:06;;;;;;;;;;;18.90;88.30;;;;;;4976422;28;19949;-77